Terminal Aerodrome Forecast
Issued by NWS

Home | Current Version | Previous Version | Graphics & Text | Print | Product List | Glossary On
Versions: 1 2 3 4 5 6 7 8 9 10 11 12 13 14 15 16 17 18 19 20 21 22 23 24 25 26 27 28 29 30 31 32 33
000
FTUS43 KLOT 242300
TAFORD
TAF
KORD 242340Z 2500/2606 27014G23KT P6SM FEW035 SCT060
     FM250300 30013G20KT P6SM FEW250
     FM250600 33009KT P6SM SCT150
     FM251500 02005KT P6SM BKN080
     FM260000 03012KT P6SM VCSH SCT020 BKN060
     FM260400 03012KT 4SM -SN BKN020 OVC040 PROB30 2604/2606 1SM
      -SHSN=

USA.gov is the U.S. government's official web portal to all federal, state and local government web resources and services.